sensor_id;sensor_type;location;lat;lon;timestamp;P1;durP1;ratioP1;P2;durP2;ratioP2
15498;SDS011;7851;52.260;6.030;2023-07-28T04:05:46;21.9;;;19.8;;
15498;SDS011;7851;52.260;6.030;2023-07-28T04:06:47;24.3;;;19.3;;
15498;SDS011;7851;52.260;6.030;2023-07-28T04:07:46;23.6;;;20.6;;
15498;SDS011;7851;52.260;6.030;2023-07-28T04:08:46;24.3;;;20.5;;
15498;SDS011;7851;52.260;6.030;2023-07-28T04:09:46;22.3;;;19.8;;
15498;SDS011;7851;52.260;6.030;2023-07-28T04:10:46;20.9;;;18.9;;
15498;SDS011;7851;52.260;6.030;2023-07-28T04:11:46;24;;;18.9;;
15498;SDS011;7851;52.260;6.030;2023-07-28T04:12:46;21.8;;;18.6;;
15498;SDS011;7851;52.260;6.030;2023-07-28T04:13:46;25.1;;;19.7;;
15498;SDS011;7851;52.260;6.030;2023-07-28T04:14:46;26.7;;;20.9;;
15498;SDS011;7851;52.260;6.030;2023-07-28T04:15:46;21.6;;;19.4;;
15498;SDS011;7851;52.260;6.030;2023-07-28T04:16:46;22.2;;;18.3;;
15498;SDS011;7851;52.260;6.030;2023-07-28T04:17:46;22;;;18.5;;
15498;SDS011;7851;52.260;6.030;2023-07-28T04:18:46;27.8;;;21.2;;
15498;SDS011;7851;52.260;6.030;2023-07-28T04:19:47;21.7;;;18.9;;
15498;SDS011;7851;52.260;6.030;2023-07-28T04:20:46;25.7;;;19.6;;
15498;SDS011;7851;52.260;6.030;2023-07-28T04:21:46;20.2;;;18.2;;
15498;SDS011;7851;52.260;6.030;2023-07-28T04:22:46;26.5;;;21;;
15498;SDS011;7851;52.260;6.030;2023-07-28T04:23:46;22.9;;;20.4;;
15498;SDS011;7851;52.260;6.030;2023-07-28T04:24:46;23.5;;;18.7;;
15498;SDS011;7851;52.260;6.030;2023-07-28T04:25:46;26.5;;;20.2;;
15498;SDS011;7851;52.260;6.030;2023-07-28T04:26:46;21.4;;;19.1;;
15498;SDS011;7851;52.260;6.030;2023-07-28T04:27:46;23.6;;;21;;
15498;SDS011;7851;52.260;6.030;2023-07-28T04:28:46;24.9;;;20;;
15498;SDS011;7851;52.260;6.030;2023-07-28T04:29:46;23.2;;;19.5;;
15498;SDS011;7851;52.260;6.030;2023-07-28T04:30:46;21.3;;;18.3;;
15498;SDS011;7851;52.260;6.030;2023-07-28T04:31:46;27;;;19.1;;
15498;SDS011;7851;52.260;6.030;2023-07-28T04:32:46;24.8;;;21.2;;
15498;SDS011;7851;52.260;6.030;2023-07-28T04:33:46;27.1;;;21.2;;
15498;SDS011;7851;52.260;6.030;2023-07-28T04:34:46;22;;;19.7;;
15498;SDS011;7851;52.260;6.030;2023-07-28T04:35:46;23;;;19.5;;
15498;SDS011;7851;52.260;6.030;2023-07-28T04:36:46;28.4;;;20.1;;
15498;SDS011;7851;52.260;6.030;2023-07-28T04:37:46;23.9;;;20.3;;
15498;SDS011;7851;52.260;6.030;2023-07-28T04:38:46;27.1;;;20.1;;
15498;SDS011;7851;52.260;6.030;2023-07-28T04:39:46;31.7;;;22.6;;
15498;SDS011;7851;52.260;6.030;2023-07-28T04:40:46;24.3;;;21.2;;
15498;SDS011;7851;52.260;6.030;2023-07-28T04:41:46;24.2;;;19.9;;
15498;SDS011;7851;52.260;6.030;2023-07-28T04:42:46;25.7;;;21;;
15498;SDS011;7851;52.260;6.030;2023-07-28T04:43:46;24.4;;;19.6;;
15498;SDS011;7851;52.260;6.030;2023-07-28T04:44:46;24;;;19.7;;
15498;SDS011;7851;52.260;6.030;2023-07-28T04:45:46;24.3;;;20.7;;
15498;SDS011;7851;52.260;6.030;2023-07-28T04:46:46;27.3;;;21.9;;
15498;SDS011;7851;52.260;6.030;2023-07-28T04:47:46;28.2;;;21.1;;
15498;SDS011;7851;52.260;6.030;2023-07-28T04:48:46;30.5;;;20.5;;
15498;SDS011;7851;52.260;6.030;2023-07-28T04:49:46;22.9;;;19.7;;
15498;SDS011;7851;52.260;6.030;2023-07-28T04:50:46;26.9;;;22.1;;
15498;SDS011;7851;52.260;6.030;2023-07-28T04:51:46;22.7;;;19.7;;
15498;SDS011;7851;52.260;6.030;2023-07-28T04:52:46;28.6;;;20.6;;
15498;SDS011;7851;52.260;6.030;2023-07-28T04:53:46;24.5;;;18.8;;
15498;SDS011;7851;52.260;6.030;2023-07-28T04:54:46;26.5;;;20.5;;
15498;SDS011;7851;52.260;6.030;2023-07-28T04:55:46;28.2;;;20.9;;
15498;SDS011;7851;52.260;6.030;2023-07-28T04:56:46;24;;;19.6;;
15498;SDS011;7851;52.260;6.030;2023-07-28T04:57:46;32.3;;;20.5;;
15498;SDS011;7851;52.260;6.030;2023-07-28T04:58:46;23.7;;;19.4;;
15498;SDS011;7851;52.260;6.030;2023-07-28T04:59:46;24.6;;;19.6;;
15498;SDS011;7851;52.260;6.030;2023-07-28T05:00:46;26.4;;;19.5;;
15498;SDS011;7851;52.260;6.030;2023-07-28T05:01:46;27.6;;;19.8;;
15498;SDS011;7851;52.260;6.030;2023-07-28T05:02:46;23.4;;;17.7;;
15498;SDS011;7851;52.260;6.030;2023-07-28T05:03:46;23.8;;;19.6;;
15498;SDS011;7851;52.260;6.030;2023-07-28T05:04:46;22;;;18.1;;
15498;SDS011;7851;52.260;6.030;2023-07-28T05:05:46;26.4;;;19.7;;
15498;SDS011;7851;52.260;6.030;2023-07-28T05:06:46;21.8;;;19.5;;
15498;SDS011;7851;52.260;6.030;2023-07-28T05:07:46;22.2;;;18.9;;
15498;SDS011;7851;52.260;6.030;2023-07-28T05:08:46;37.5;;;20.7;;
15498;SDS011;7851;52.260;6.030;2023-07-28T05:09:46;24.8;;;18.3;;
15498;SDS011;7851;52.260;6.030;2023-07-28T05:10:46;20.3;;;17.7;;
15498;SDS011;7851;52.260;6.030;2023-07-28T05:11:46;22.2;;;19.3;;
15498;SDS011;7851;52.260;6.030;2023-07-28T05:12:46;32;;;21;;
15498;SDS011;7851;52.260;6.030;2023-07-28T05:13:46;21;;;18.6;;
15498;SDS011;7851;52.260;6.030;2023-07-28T05:14:46;25.1;;;19.3;;
15498;SDS011;7851;52.260;6.030;2023-07-28T05:15:46;21.3;;;19;;
15498;SDS011;7851;52.260;6.030;2023-07-28T05:16:46;21.9;;;19.5;;
15498;SDS011;7851;52.260;6.030;2023-07-28T05:17:46;24.7;;;18.4;;
15498;SDS011;7851;52.260;6.030;2023-07-28T05:18:46;26.1;;;19.4;;
15498;SDS011;7851;52.260;6.030;2023-07-28T05:19:46;25.9;;;19.8;;
15498;SDS011;7851;52.260;6.030;2023-07-28T05:20:46;23.8;;;17.8;;
15498;SDS011;7851;52.260;6.030;2023-07-28T05:21:46;24.9;;;19.2;;
15498;SDS011;7851;52.260;6.030;2023-07-28T05:22:46;20.5;;;18.2;;
15498;SDS011;7851;52.260;6.030;2023-07-28T05:23:46;22.3;;;17.5;;
15498;SDS011;7851;52.260;6.030;2023-07-28T05:24:46;18.6;;;16.5;;
15498;SDS011;7851;52.260;6.030;2023-07-28T05:25:46;21.5;;;17.8;;
15498;SDS011;7851;52.260;6.030;2023-07-28T05:26:46;23.7;;;18.4;;
15498;SDS011;7851;52.260;6.030;2023-07-28T05:27:46;29.4;;;20;;
15498;SDS011;7851;52.260;6.030;2023-07-28T05:28:46;23.1;;;18.7;;
15498;SDS011;7851;52.260;6.030;2023-07-28T05:29:46;22.5;;;17.2;;
15498;SDS011;7851;52.260;6.030;2023-07-28T05:30:46;25.9;;;19.3;;
15498;SDS011;7851;52.260;6.030;2023-07-28T05:31:46;24.9;;;19.9;;
15498;SDS011;7851;52.260;6.030;2023-07-28T05:32:46;23.2;;;18.5;;
15498;SDS011;7851;52.260;6.030;2023-07-28T05:33:46;21.7;;;17.2;;
15498;SDS011;7851;52.260;6.030;2023-07-28T05:34:46;23.1;;;18.3;;
15498;SDS011;7851;52.260;6.030;2023-07-28T05:35:46;19.6;;;17.2;;
15498;SDS011;7851;52.260;6.030;2023-07-28T05:36:46;30.1;;;25.9;;
15498;SDS011;7851;52.260;6.030;2023-07-28T05:37:46;26.5;;;23.7;;
15498;SDS011;7851;52.260;6.030;2023-07-28T05:38:46;25.1;;;21.7;;
15498;SDS011;7851;52.260;6.030;2023-07-28T05:39:46;27.7;;;24.9;;
15498;SDS011;7851;52.260;6.030;2023-07-28T05:40:46;24;;;21.8;;
15498;SDS011;7851;52.260;6.030;2023-07-28T05:41:46;29.3;;;26.3;;
15498;SDS011;7851;52.260;6.030;2023-07-28T05:42:46;30.1;;;26.8;;
15498;SDS011;7851;52.260;6.030;2023-07-28T05:43:46;29.9;;;26.9;;
15498;SDS011;7851;52.260;6.030;2023-07-28T05:44:46;30.5;;;27.7;;
15498;SDS011;7851;52.260;6.030;2023-07-28T05:45:46;29.1;;;26.3;;
15498;SDS011;7851;52.260;6.030;2023-07-28T05:46:46;29.4;;;26;;
15498;SDS011;7851;52.260;6.030;2023-07-28T05:47:46;22.8;;;20.7;;
15498;SDS011;7851;52.260;6.030;2023-07-28T05:48:46;23.5;;;20.1;;
15498;SDS011;7851;52.260;6.030;2023-07-28T05:49:46;23.5;;;19.3;;
15498;SDS011;7851;52.260;6.030;2023-07-28T05:50:46;23.4;;;19.6;;
15498;SDS011;7851;52.260;6.030;2023-07-28T05:51:46;24;;;21;;
15498;SDS011;7851;52.260;6.030;2023-07-28T05:52:46;22.3;;;19.8;;
15498;SDS011;7851;52.260;6.030;2023-07-28T05:53:46;25.3;;;19.7;;
15498;SDS011;7851;52.260;6.030;2023-07-28T05:54:46;19.6;;;17.6;;
15498;SDS011;7851;52.260;6.030;2023-07-28T05:55:46;28.3;;;19.9;;
15498;SDS011;7851;52.260;6.030;2023-07-28T05:56:46;25.3;;;21.5;;
15498;SDS011;7851;52.260;6.030;2023-07-28T05:57:46;26.3;;;22;;
15498;SDS011;7851;52.260;6.030;2023-07-28T05:58:47;22.7;;;20.5;;
15498;SDS011;7851;52.260;6.030;2023-07-28T05:59:46;24.4;;;21.9;;
15498;SDS011;7851;52.260;6.030;2023-07-28T06:00:46;22.4;;;20.1;;
15498;SDS011;7851;52.260;6.030;2023-07-28T06:01:46;24.4;;;21.6;;
15498;SDS011;7851;52.260;6.030;2023-07-28T06:02:46;27;;;24.3;;
15498;SDS011;7851;52.260;6.030;2023-07-28T06:03:46;26.7;;;22.8;;
15498;SDS011;7851;52.260;6.030;2023-07-28T06:04:46;30;;;26.3;;
15498;SDS011;7851;52.260;6.030;2023-07-28T06:05:46;27.6;;;24.3;;
15498;SDS011;7851;52.260;6.030;2023-07-28T06:06:46;26.6;;;23.7;;
15498;SDS011;7851;52.260;6.030;2023-07-28T06:07:46;26.5;;;23.7;;
15498;SDS011;7851;52.260;6.030;2023-07-28T06:08:46;28.1;;;24.1;;
15498;SDS011;7851;52.260;6.030;2023-07-28T06:09:46;31.2;;;26.2;;
15498;SDS011;7851;52.260;6.030;2023-07-28T06:10:46;31;;;28;;
15498;SDS011;7851;52.260;6.030;2023-07-28T06:11:46;26.9;;;24.2;;
15498;SDS011;7851;52.260;6.030;2023-07-28T06:12:46;25.7;;;23.3;;
15498;SDS011;7851;52.260;6.030;2023-07-28T06:13:46;27.8;;;24.9;;
15498;SDS011;7851;52.260;6.030;2023-07-28T06:14:46;28.8;;;25.9;;
15498;SDS011;7851;52.260;6.030;2023-07-28T06:15:47;29.3;;;26.3;;
15498;SDS011;7851;52.260;6.030;2023-07-28T06:16:46;26.9;;;24.1;;
15498;SDS011;7851;52.260;6.030;2023-07-28T06:17:46;29.5;;;26.7;;
15498;SDS011;7851;52.260;6.030;2023-07-28T06:18:46;35.9;;;27.2;;
15498;SDS011;7851;52.260;6.030;2023-07-28T06:19:46;28.1;;;25.3;;
15498;SDS011;7851;52.260;6.030;2023-07-28T06:20:46;26.4;;;23.9;;
15498;SDS011;7851;52.260;6.030;2023-07-28T06:21:46;31.5;;;27.8;;
15498;SDS011;7851;52.260;6.030;2023-07-28T06:22:46;30.3;;;27.3;;
15498;SDS011;7851;52.260;6.030;2023-07-28T06:23:46;32.2;;;29.2;;
15498;SDS011;7851;52.260;6.030;2023-07-28T06:24:46;30;;;27;;
15498;SDS011;7851;52.260;6.030;2023-07-28T06:25:46;30.3;;;27.3;;
15498;SDS011;7851;52.260;6.030;2023-07-28T06:26:46;28.2;;;25.8;;
15498;SDS011;7851;52.260;6.030;2023-07-28T06:27:46;26.5;;;24.1;;
15498;SDS011;7851;52.260;6.030;2023-07-28T06:28:46;29.5;;;26.7;;
15498;SDS011;7851;52.260;6.030;2023-07-28T06:29:46;28.2;;;25.6;;
15498;SDS011;7851;52.260;6.030;2023-07-28T06:30:46;27.9;;;25.2;;
15498;SDS011;7851;52.260;6.030;2023-07-28T06:31:46;28.4;;;25.8;;
15498;SDS011;7851;52.260;6.030;2023-07-28T06:32:46;30.7;;;27.6;;
15498;SDS011;7851;52.260;6.030;2023-07-28T06:33:47;29.7;;;27;;
15498;SDS011;7851;52.260;6.030;2023-07-28T06:34:46;30.3;;;27.6;;
15498;SDS011;7851;52.260;6.030;2023-07-28T06:35:46;32.2;;;29.1;;
15498;SDS011;7851;52.260;6.030;2023-07-28T06:36:46;31.8;;;28.5;;
15498;SDS011;7851;52.260;6.030;2023-07-28T06:37:46;30.6;;;27.9;;
15498;SDS011;7851;52.260;6.030;2023-07-28T06:38:46;31.5;;;28.8;;
15498;SDS011;7851;52.260;6.030;2023-07-28T06:39:46;31;;;28.2;;
15498;SDS011;7851;52.260;6.030;2023-07-28T06:40:46;26.9;;;24.5;;
15498;SDS011;7851;52.260;6.030;2023-07-28T06:41:46;26.4;;;23.1;;
15498;SDS011;7851;52.260;6.030;2023-07-28T06:42:46;23.2;;;20.8;;
15498;SDS011;7851;52.260;6.030;2023-07-28T06:43:46;23.1;;;20.7;;
15498;SDS011;7851;52.260;6.030;2023-07-28T06:44:46;23.9;;;21.5;;
15498;SDS011;7851;52.260;6.030;2023-07-28T06:45:46;23.9;;;21.5;;
15498;SDS011;7851;52.260;6.030;2023-07-28T06:46:46;21.5;;;19.6;;
15498;SDS011;7851;52.260;6.030;2023-07-28T06:47:46;20.7;;;18.7;;
15498;SDS011;7851;52.260;6.030;2023-07-28T06:48:46;26.5;;;23.6;;
15498;SDS011;7851;52.260;6.030;2023-07-28T06:49:46;27;;;24.3;;
15498;SDS011;7851;52.260;6.030;2023-07-28T06:50:46;29.9;;;26.8;;
15498;SDS011;7851;52.260;6.030;2023-07-28T06:51:46;28.1;;;25.5;;
15498;SDS011;7851;52.260;6.030;2023-07-28T06:52:46;30;;;27.2;;
15498;SDS011;7851;52.260;6.030;2023-07-28T06:53:46;28.2;;;25.4;;
15498;SDS011;7851;52.260;6.030;2023-07-28T06:54:46;26.7;;;24.1;;
15498;SDS011;7851;52.260;6.030;2023-07-28T07:00:47;28;;;25.3;;
15498;SDS011;7851;52.260;6.030;2023-07-28T07:01:46;26.6;;;24;;
15498;SDS011;7851;52.260;6.030;2023-07-28T07:02:46;28.8;;;25.4;;
15498;SDS011;7851;52.260;6.030;2023-07-28T07:03:46;27.1;;;24.3;;
15498;SDS011;7851;52.260;6.030;2023-07-28T07:04:46;30.9;;;28;;
15498;SDS011;7851;52.260;6.030;2023-07-28T07:05:46;30.7;;;27.9;;
15498;SDS011;7851;52.260;6.030;2023-07-28T07:06:46;30.3;;;27.3;;
15498;SDS011;7851;52.260;6.030;2023-07-28T07:07:46;30.4;;;27.4;;
15498;SDS011;7851;52.260;6.030;2023-07-28T07:08:46;29.6;;;27.1;;
15498;SDS011;7851;52.260;6.030;2023-07-28T07:09:46;28.7;;;26.1;;
15498;SDS011;7851;52.260;6.030;2023-07-28T07:10:47;29.6;;;26.9;;
15498;SDS011;7851;52.260;6.030;2023-07-28T07:11:46;30;;;27.2;;
15498;SDS011;7851;52.260;6.030;2023-07-28T07:12:47;32.3;;;29.3;;
15498;SDS011;7851;52.260;6.030;2023-07-28T07:13:46;30.6;;;27.8;;
15498;SDS011;7851;52.260;6.030;2023-07-28T07:14:46;27.9;;;25;;
15498;SDS011;7851;52.260;6.030;2023-07-28T07:15:46;29;;;26.2;;
15498;SDS011;7851;52.260;6.030;2023-07-28T07:16:46;26.3;;;23.8;;
15498;SDS011;7851;52.260;6.030;2023-07-28T07:17:46;29.3;;;26.4;;
15498;SDS011;7851;52.260;6.030;2023-07-28T07:18:46;24.6;;;22.3;;
15498;SDS011;7851;52.260;6.030;2023-07-28T07:19:46;24.6;;;22.2;;
15498;SDS011;7851;52.260;6.030;2023-07-28T07:20:46;24.5;;;22.2;;
15498;SDS011;7851;52.260;6.030;2023-07-28T07:21:46;26.9;;;21.6;;
15498;SDS011;7851;52.260;6.030;2023-07-28T07:22:46;26.6;;;23.8;;
15498;SDS011;7851;52.260;6.030;2023-07-28T07:23:46;23.9;;;21.8;;
15498;SDS011;7851;52.260;6.030;2023-07-28T07:24:46;22.2;;;20.1;;
15498;SDS011;7851;52.260;6.030;2023-07-28T07:25:48;23.5;;;21.2;;
15498;SDS011;7851;52.260;6.030;2023-07-28T07:26:46;22.9;;;20.8;;
15498;SDS011;7851;52.260;6.030;2023-07-28T07:27:46;24.5;;;22.4;;
15498;SDS011;7851;52.260;6.030;2023-07-28T07:28:46;27.8;;;25.3;;
15498;SDS011;7851;52.260;6.030;2023-07-28T07:29:46;28.8;;;26.4;;
15498;SDS011;7851;52.260;6.030;2023-07-28T07:30:46;27.8;;;25.6;;
15498;SDS011;7851;52.260;6.030;2023-07-28T07:31:46;27;;;24.7;;
15498;SDS011;7851;52.260;6.030;2023-07-28T07:32:46;27.7;;;25.3;;
15498;SDS011;7851;52.260;6.030;2023-07-28T07:33:46;27.2;;;24.7;;
15498;SDS011;7851;52.260;6.030;2023-07-28T07:34:46;25;;;22.7;;
15498;SDS011;7851;52.260;6.030;2023-07-28T07:35:46;24.7;;;21.9;;
15498;SDS011;7851;52.260;6.030;2023-07-28T07:36:46;23.1;;;20.9;;
15498;SDS011;7851;52.260;6.030;2023-07-28T07:37:46;23;;;20.9;;
15498;SDS011;7851;52.260;6.030;2023-07-28T07:38:47;22.8;;;20.8;;
15498;SDS011;7851;52.260;6.030;2023-07-28T07:39:46;22.7;;;20.9;;
15498;SDS011;7851;52.260;6.030;2023-07-28T07:40:46;24.3;;;22.4;;
15498;SDS011;7851;52.260;6.030;2023-07-28T07:41:46;27.3;;;24.9;;
15498;SDS011;7851;52.260;6.030;2023-07-28T07:42:47;29.3;;;26.7;;
15498;SDS011;7851;52.260;6.030;2023-07-28T07:43:46;29.7;;;27.2;;
15498;SDS011;7851;52.260;6.030;2023-07-28T07:44:46;29.1;;;26.9;;
15498;SDS011;7851;52.260;6.030;2023-07-28T07:45:46;30.1;;;28;;
15498;SDS011;7851;52.260;6.030;2023-07-28T07:46:46;28.3;;;26.2;;
15498;SDS011;7851;52.260;6.030;2023-07-28T07:47:46;27.1;;;24.6;;
15498;SDS011;7851;52.260;6.030;2023-07-28T07:48:46;23.1;;;21.3;;
15498;SDS011;7851;52.260;6.030;2023-07-28T07:49:46;22.7;;;20.8;;
15498;SDS011;7851;52.260;6.030;2023-07-28T07:50:46;21.5;;;19.6;;
15498;SDS011;7851;52.260;6.030;2023-07-28T07:51:46;24;;;21.9;;
15498;SDS011;7851;52.260;6.030;2023-07-28T07:52:46;22.5;;;20.2;;
15498;SDS011;7851;52.260;6.030;2023-07-28T07:53:46;21.7;;;19.9;;
15498;SDS011;7851;52.260;6.030;2023-07-28T07:54:46;20.2;;;18.5;;
15498;SDS011;7851;52.260;6.030;2023-07-28T07:55:46;21.3;;;19.4;;
15498;SDS011;7851;52.260;6.030;2023-07-28T07:56:46;23.7;;;21.7;;
15498;SDS011;7851;52.260;6.030;2023-07-28T08:01:46;27.7;;;25.5;;
15498;SDS011;7851;52.260;6.030;2023-07-28T08:02:46;26.8;;;24.7;;
15498;SDS011;7851;52.260;6.030;2023-07-28T08:03:47;25.9;;;23.9;;
15498;SDS011;7851;52.260;6.030;2023-07-28T08:04:46;26;;;23.9;;
15498;SDS011;7851;52.260;6.030;2023-07-28T08:05:46;26.7;;;24.5;;
15498;SDS011;7851;52.260;6.030;2023-07-28T08:06:46;24.7;;;22.7;;
15498;SDS011;7851;52.260;6.030;2023-07-28T08:07:46;23.3;;;21.5;;
15498;SDS011;7851;52.260;6.030;2023-07-28T08:08:46;23.3;;;21.4;;
15498;SDS011;7851;52.260;6.030;2023-07-28T08:09:46;21.6;;;19.6;;
15498;SDS011;7851;52.260;6.030;2023-07-28T08:10:46;21.6;;;19.7;;
15498;SDS011;7851;52.260;6.030;2023-07-28T08:11:46;19.7;;;18;;
15498;SDS011;7851;52.260;6.030;2023-07-28T08:12:46;20.5;;;18.8;;
15498;SDS011;7851;52.260;6.030;2023-07-28T08:13:46;19.8;;;18.1;;
15498;SDS011;7851;52.260;6.030;2023-07-28T08:14:46;22.4;;;20.2;;
15498;SDS011;7851;52.260;6.030;2023-07-28T08:15:46;19.5;;;17.9;;
15498;SDS011;7851;52.260;6.030;2023-07-28T08:16:46;23.5;;;21.6;;
15498;SDS011;7851;52.260;6.030;2023-07-28T08:17:46;23.1;;;21.3;;
15498;SDS011;7851;52.260;6.030;2023-07-28T08:18:46;25.8;;;23.7;;
15498;SDS011;7851;52.260;6.030;2023-07-28T08:19:46;27.8;;;25.6;;
15498;SDS011;7851;52.260;6.030;2023-07-28T08:20:46;29.1;;;26.7;;
15498;SDS011;7851;52.260;6.030;2023-07-28T08:21:46;31;;;28.1;;
15498;SDS011;7851;52.260;6.030;2023-07-28T08:22:46;29.4;;;27.2;;
15498;SDS011;7851;52.260;6.030;2023-07-28T08:23:46;30.3;;;27.7;;
15498;SDS011;7851;52.260;6.030;2023-07-28T08:24:46;29.1;;;26.8;;
15498;SDS011;7851;52.260;6.030;2023-07-28T08:25:46;29.4;;;26.8;;
15498;SDS011;7851;52.260;6.030;2023-07-28T08:26:46;30.5;;;28;;
15498;SDS011;7851;52.260;6.030;2023-07-28T08:27:46;30.5;;;28;;
15498;SDS011;7851;52.260;6.030;2023-07-28T08:28:46;31.1;;;28.5;;
15498;SDS011;7851;52.260;6.030;2023-07-28T08:29:46;31.6;;;28.7;;
15498;SDS011;7851;52.260;6.030;2023-07-28T08:30:52;31.7;;;29;;
15498;SDS011;7851;52.260;6.030;2023-07-28T08:31:46;27.9;;;25.6;;
15498;SDS011;7851;52.260;6.030;2023-07-28T08:32:46;26.2;;;24;;
15498;SDS011;7851;52.260;6.030;2023-07-28T08:33:46;26.4;;;24.1;;
15498;SDS011;7851;52.260;6.030;2023-07-28T08:34:46;23.2;;;21;;
15498;SDS011;7851;52.260;6.030;2023-07-28T08:35:46;22.1;;;19.7;;
15498;SDS011;7851;52.260;6.030;2023-07-28T08:36:46;22.1;;;20;;
15498;SDS011;7851;52.260;6.030;2023-07-28T08:37:46;23.1;;;20.9;;
15498;SDS011;7851;52.260;6.030;2023-07-28T08:38:47;25.4;;;23;;
15498;SDS011;7851;52.260;6.030;2023-07-28T08:39:46;28.5;;;26.2;;
15498;SDS011;7851;52.260;6.030;2023-07-28T08:40:46;28.1;;;25.8;;
15498;SDS011;7851;52.260;6.030;2023-07-28T08:41:46;27.6;;;25.5;;
15498;SDS011;7851;52.260;6.030;2023-07-28T08:42:46;30;;;27.6;;
15498;SDS011;7851;52.260;6.030;2023-07-28T08:43:46;29.6;;;27;;
15498;SDS011;7851;52.260;6.030;2023-07-28T08:44:46;29.3;;;26.4;;
15498;SDS011;7851;52.260;6.030;2023-07-28T08:45:46;30.3;;;27.6;;
15498;SDS011;7851;52.260;6.030;2023-07-28T08:46:46;28.1;;;25.9;;
15498;SDS011;7851;52.260;6.030;2023-07-28T08:47:46;30.1;;;27.5;;
15498;SDS011;7851;52.260;6.030;2023-07-28T08:48:46;30.8;;;28.3;;
15498;SDS011;7851;52.260;6.030;2023-07-28T08:49:46;30.2;;;28.1;;
15498;SDS011;7851;52.260;6.030;2023-07-28T08:50:46;29.7;;;27.3;;
15498;SDS011;7851;52.260;6.030;2023-07-28T08:51:48;30.9;;;28.4;;
15498;SDS011;7851;52.260;6.030;2023-07-28T08:52:46;29.5;;;26.9;;
15498;SDS011;7851;52.260;6.030;2023-07-28T08:53:46;32.6;;;30.1;;
15498;SDS011;7851;52.260;6.030;2023-07-28T08:54:46;30.6;;;28.2;;
15498;SDS011;7851;52.260;6.030;2023-07-28T08:55:46;29.7;;;27.5;;
15498;SDS011;7851;52.260;6.030;2023-07-28T08:56:46;30.6;;;28.1;;
15498;SDS011;7851;52.260;6.030;2023-07-28T08:57:46;29.5;;;27.2;;
15498;SDS011;7851;52.260;6.030;2023-07-28T08:58:46;29.7;;;27.4;;
15498;SDS011;7851;52.260;6.030;2023-07-28T08:59:46;30.1;;;27.7;;
15498;SDS011;7851;52.260;6.030;2023-07-28T09:00:46;28.9;;;26.1;;
15498;SDS011;7851;52.260;6.030;2023-07-28T09:01:46;29.3;;;27;;
15498;SDS011;7851;52.260;6.030;2023-07-28T09:02:48;27.3;;;25;;
15498;SDS011;7851;52.260;6.030;2023-07-28T09:03:46;27.6;;;25.6;;
15498;SDS011;7851;52.260;6.030;2023-07-28T09:04:47;28.6;;;26.4;;
15498;SDS011;7851;52.260;6.030;2023-07-28T09:05:46;27.6;;;25.4;;
15498;SDS011;7851;52.260;6.030;2023-07-28T09:06:46;27.2;;;25.3;;
15498;SDS011;7851;52.260;6.030;2023-07-28T09:07:46;27.8;;;25.8;;
15498;SDS011;7851;52.260;6.030;2023-07-28T09:08:46;25.6;;;23.7;;
15498;SDS011;7851;52.260;6.030;2023-07-28T09:09:46;26.5;;;24.7;;
15498;SDS011;7851;52.260;6.030;2023-07-28T09:10:47;24.9;;;23;;
15498;SDS011;7851;52.260;6.030;2023-07-28T09:11:47;25.9;;;23.4;;
15498;SDS011;7851;52.260;6.030;2023-07-28T09:12:47;24.4;;;22.6;;
15498;SDS011;7851;52.260;6.030;2023-07-28T09:13:46;26.3;;;24;;
15498;SDS011;7851;52.260;6.030;2023-07-28T09:14:46;24.9;;;23;;
15498;SDS011;7851;52.260;6.030;2023-07-28T09:15:46;26.6;;;24.9;;
15498;SDS011;7851;52.260;6.030;2023-07-28T09:16:47;25.9;;;24;;
15498;SDS011;7851;52.260;6.030;2023-07-28T09:17:46;24.3;;;22.7;;
15498;SDS011;7851;52.260;6.030;2023-07-28T09:18:46;25.4;;;23.6;;
15498;SDS011;7851;52.260;6.030;2023-07-28T09:19:50;24.5;;;22.7;;
15498;SDS011;7851;52.260;6.030;2023-07-28T09:20:46;25.4;;;23.5;;
15498;SDS011;7851;52.260;6.030;2023-07-28T09:21:56;24;;;22.1;;
15498;SDS011;7851;52.260;6.030;2023-07-28T09:22:46;24.5;;;22.2;;
15498;SDS011;7851;52.260;6.030;2023-07-28T09:23:46;24.5;;;22.6;;
15498;SDS011;7851;52.260;6.030;2023-07-28T09:24:47;23.6;;;21.5;;
15498;SDS011;7851;52.260;6.030;2023-07-28T09:25:46;23.2;;;21.5;;
15498;SDS011;7851;52.260;6.030;2023-07-28T09:26:46;23.2;;;21.5;;
15498;SDS011;7851;52.260;6.030;2023-07-28T09:27:50;27;;;24.5;;
15498;SDS011;7851;52.260;6.030;2023-07-28T09:28:46;25.7;;;24;;
15498;SDS011;7851;52.260;6.030;2023-07-28T09:29:47;26.3;;;24.6;;
15498;SDS011;7851;52.260;6.030;2023-07-28T09:30:47;33;;;30.6;;
15498;SDS011;7851;52.260;6.030;2023-07-28T09:31:47;28;;;26.2;;
15498;SDS011;7851;52.260;6.030;2023-07-28T09:32:47;32.7;;;30.4;;
15498;SDS011;7851;52.260;6.030;2023-07-28T09:33:46;32.8;;;30.6;;
15498;SDS011;7851;52.260;6.030;2023-07-28T09:34:46;33.4;;;31.1;;
15498;SDS011;7851;52.260;6.030;2023-07-28T09:35:47;32.7;;;30.9;;
15498;SDS011;7851;52.260;6.030;2023-07-28T09:36:46;33.8;;;31.8;;
15498;SDS011;7851;52.260;6.030;2023-07-28T09:37:47;34;;;31.9;;
15498;SDS011;7851;52.260;6.030;2023-07-28T09:38:46;31.9;;;30.1;;
15498;SDS011;7851;52.260;6.030;2023-07-28T09:39:46;32.9;;;30.9;;
15498;SDS011;7851;52.260;6.030;2023-07-28T09:40:46;30.3;;;28.3;;
15498;SDS011;7851;52.260;6.030;2023-07-28T09:41:47;31;;;29.1;;
15498;SDS011;7851;52.260;6.030;2023-07-28T09:42:47;30.7;;;28.5;;
15498;SDS011;7851;52.260;6.030;2023-07-28T09:43:46;29.3;;;27.4;;
15498;SDS011;7851;52.260;6.030;2023-07-28T09:44:46;28.3;;;26.6;;
15498;SDS011;7851;52.260;6.030;2023-07-28T09:45:46;30.7;;;28.4;;
15498;SDS011;7851;52.260;6.030;2023-07-28T09:46:49;29;;;27.1;;
15498;SDS011;7851;52.260;6.030;2023-07-28T09:47:47;30;;;28.3;;
15498;SDS011;7851;52.260;6.030;2023-07-28T09:48:46;29.3;;;27.4;;
15498;SDS011;7851;52.260;6.030;2023-07-28T09:49:46;28;;;26.3;;
15498;SDS011;7851;52.260;6.030;2023-07-28T09:50:46;29.9;;;28.2;;
15498;SDS011;7851;52.260;6.030;2023-07-28T09:51:47;28.4;;;26.7;;
15498;SDS011;7851;52.260;6.030;2023-07-28T09:52:47;29.3;;;27.2;;
15498;SDS011;7851;52.260;6.030;2023-07-28T09:53:48;26.4;;;25;;
15498;SDS011;7851;52.260;6.030;2023-07-28T09:54:46;25.9;;;24.3;;
15498;SDS011;7851;52.260;6.030;2023-07-28T09:55:46;24.9;;;23.1;;
15498;SDS011;7851;52.260;6.030;2023-07-28T09:56:46;25.1;;;23.4;;
15498;SDS011;7851;52.260;6.030;2023-07-28T09:57:49;25.3;;;23.8;;
15498;SDS011;7851;52.260;6.030;2023-07-28T09:58:48;29.3;;;27.5;;
15498;SDS011;7851;52.260;6.030;2023-07-28T09:59:47;28.1;;;26.4;;
15498;SDS011;7851;52.260;6.030;2023-07-28T10:00:46;29.9;;;28.2;;
15498;SDS011;7851;52.260;6.030;2023-07-28T10:01:46;27.2;;;25.7;;
15498;SDS011;7851;52.260;6.030;2023-07-28T10:02:46;25.6;;;24;;
15498;SDS011;7851;52.260;6.030;2023-07-28T10:03:46;25.6;;;24.1;;
15498;SDS011;7851;52.260;6.030;2023-07-28T10:04:46;25.9;;;24.4;;
15498;SDS011;7851;52.260;6.030;2023-07-28T10:05:46;27.7;;;25.7;;
15498;SDS011;7851;52.260;6.030;2023-07-28T10:06:46;26.7;;;25.1;;
15498;SDS011;7851;52.260;6.030;2023-07-28T10:07:48;28.6;;;27.1;;
15498;SDS011;7851;52.260;6.030;2023-07-28T10:08:46;28.3;;;26.7;;
15498;SDS011;7851;52.260;6.030;2023-07-28T10:09:46;25.7;;;23.6;;
15498;SDS011;7851;52.260;6.030;2023-07-28T10:10:46;28.1;;;26.6;;
15498;SDS011;7851;52.260;6.030;2023-07-28T10:11:46;30.6;;;28.9;;
15498;SDS011;7851;52.260;6.030;2023-07-28T10:12:47;29.8;;;28.2;;
15498;SDS011;7851;52.260;6.030;2023-07-28T10:13:46;28.3;;;26;;
15498;SDS011;7851;52.260;6.030;2023-07-28T10:14:46;23.7;;;22.3;;
15498;SDS011;7851;52.260;6.030;2023-07-28T10:15:46;23.1;;;21.8;;
15498;SDS011;7851;52.260;6.030;2023-07-28T10:16:46;23.8;;;22.5;;
15498;SDS011;7851;52.260;6.030;2023-07-28T10:17:47;23.6;;;22.1;;
15498;SDS011;7851;52.260;6.030;2023-07-28T10:18:51;20.6;;;19.5;;
15498;SDS011;7851;52.260;6.030;2023-07-28T10:19:46;20.5;;;19.2;;
15498;SDS011;7851;52.260;6.030;2023-07-28T10:20:46;21.1;;;20;;
15498;SDS011;7851;52.260;6.030;2023-07-28T10:21:46;25.6;;;24.1;;
15498;SDS011;7851;52.260;6.030;2023-07-28T10:22:46;25.8;;;24.2;;
15498;SDS011;7851;52.260;6.030;2023-07-28T10:23:53;27.5;;;26;;